Time,TemperatureF,DewpointF,PressureIn,WindDirection,WindDirectionDegrees,WindSpeedMPH,WindSpeedGustMPH,Humidity,HourlyPrecipIn,Conditions,Clouds,dailyrainin,SoftwareType,DateUTC
2013-01-18 00:11:00,43.2,38.1,30.05,NNW,337,5.3,-999.0,82,-99.99,,,0.00,Acu-Link.com,2013-01-18 05:11:00,
2013-01-18 00:27:00,43.0,38.2,30.04,NE,45,3.7,-999.0,83,-99.99,,,0.00,Acu-Link.com,2013-01-18 05:27:00,
2013-01-18 00:42:00,42.4,38.2,30.06,ESE,112,3.2,-999.0,85,-99.99,,,0.00,Acu-Link.com,2013-01-18 05:42:00,
2013-01-18 00:57:00,41.7,38.1,30.06,ESE,112,2.7,-999.0,87,-99.99,,,0.00,Acu-Link.com,2013-01-18 05:57:00,
2013-01-18 01:12:00,41.5,38.2,30.08,NE,45,2.2,-999.0,88,-99.99,,,0.00,Acu-Link.com,2013-01-18 06:12:00,
2013-01-18 01:27:00,41.0,38.0,30.09,East,90,2.7,-999.0,89,-99.99,,,0.00,Acu-Link.com,2013-01-18 06:27:00,
2013-01-18 01:57:00,40.3,37.9,30.12,NE,45,2.7,-999.0,91,-99.99,,,0.00,Acu-Link.com,2013-01-18 06:57:00,
2013-01-18 02:12:00,40.1,37.7,30.13,SW,225,1.1,-999.0,91,-99.99,,,0.00,Acu-Link.com,2013-01-18 07:12:00,
2013-01-18 02:27:00,39.6,37.5,30.13,ESE,112,1.1,-999.0,92,-99.99,,,0.00,Acu-Link.com,2013-01-18 07:27:00,
2013-01-18 02:43:00,39.2,37.3,30.14,SE,135,1.7,-999.0,93,-99.99,,,0.00,Acu-Link.com,2013-01-18 07:43:00,
2013-01-18 02:58:00,38.8,37.2,30.14,NE,45,1.1,-999.0,94,-99.99,,,0.00,Acu-Link.com,2013-01-18 07:58:00,
2013-01-18 03:13:00,38.8,37.5,30.15,NNE,22,0.0,-999.0,95,-99.99,,,0.00,Acu-Link.com,2013-01-18 08:13:00,
2013-01-18 03:28:00,38.3,37.0,30.14,SSW,202,2.2,-999.0,95,-99.99,,,0.00,Acu-Link.com,2013-01-18 08:28:00,
2013-01-18 03:43:00,38.3,37.3,30.14,East,90,1.7,-999.0,96,-99.99,,,0.00,Acu-Link.com,2013-01-18 08:43:00,
2013-01-18 03:58:00,37.9,36.9,30.16,NE,45,0.0,-999.0,96,-99.99,,,0.00,Acu-Link.com,2013-01-18 08:58:00,
2013-01-18 04:13:00,37.8,36.8,30.16,ESE,112,0.0,-999.0,96,-99.99,,,0.00,Acu-Link.com,2013-01-18 09:13:00,
2013-01-18 04:28:00,37.4,36.4,30.16,ENE,67,0.0,-999.0,96,-99.99,,,0.00,Acu-Link.com,2013-01-18 09:28:00,
2013-01-18 04:43:00,37.2,36.2,30.17,ESE,112,0.0,-999.0,96,-99.99,,,0.00,Acu-Link.com,2013-01-18 09:43:00,
2013-01-18 04:59:00,37.0,36.0,30.17,NNE,22,0.0,-999.0,96,-99.99,,,0.00,Acu-Link.com,2013-01-18 09:59:00,
2013-01-18 05:14:00,36.7,35.9,30.18,West,270,0.0,-999.0,97,-99.99,,,0.00,Acu-Link.com,2013-01-18 10:14:00,
2013-01-18 05:29:00,36.5,36.0,30.19,WSW,247,0.0,-999.0,98,-99.99,,,0.00,Acu-Link.com,2013-01-18 10:29:00,
2013-01-18 05:44:00,35.6,34.8,30.20,NNE,22,0.0,-999.0,97,-99.99,,,0.00,Acu-Link.com,2013-01-18 10:44:00,
2013-01-18 05:59:00,35.4,34.9,30.20,WSW,247,0.0,-999.0,98,-99.99,,,0.00,Acu-Link.com,2013-01-18 10:59:00,
2013-01-18 06:14:00,34.9,34.4,30.21,East,90,0.0,-999.0,98,-99.99,,,0.00,Acu-Link.com,2013-01-18 11:14:00,
2013-01-18 06:29:00,34.5,34.0,30.22,East,90,0.0,-999.0,98,-99.99,,,0.00,Acu-Link.com,2013-01-18 11:29:00,
2013-01-18 06:44:00,34.2,33.7,30.22,East,90,0.0,-999.0,98,-99.99,,,0.00,Acu-Link.com,2013-01-18 11:44:00,
2013-01-18 06:59:00,34.0,33.7,30.23,SW,225,0.0,-999.0,99,-99.99,,,0.00,Acu-Link.com,2013-01-18 11:59:00,
2013-01-18 07:15:00,33.3,33.0,30.24,East,90,0.0,-999.0,99,-99.99,,,0.00,Acu-Link.com,2013-01-18 12:15:00,
2013-01-18 07:30:00,33.1,32.8,30.24,East,90,0.0,-999.0,99,-99.99,,,0.00,Acu-Link.com,2013-01-18 12:30:00,
2013-01-18 07:45:00,33.1,32.8,30.25,East,90,0.0,-999.0,99,-99.99,,,0.00,Acu-Link.com,2013-01-18 12:45:00,
2013-01-18 08:00:00,32.9,32.7,30.26,ENE,67,0.0,-999.0,99,-99.99,,,0.00,Acu-Link.com,2013-01-18 13:00:00,
2013-01-18 08:15:00,33.4,33.1,30.26,ESE,112,0.0,-999.0,99,-99.99,,,0.00,Acu-Link.com,2013-01-18 13:15:00,
2013-01-18 08:30:00,34.2,33.9,30.28,SW,225,0.0,-999.0,99,-99.99,,,0.00,Acu-Link.com,2013-01-18 13:30:00,
2013-01-18 08:45:00,35.1,34.8,30.28,East,90,0.0,-999.0,99,-99.99,,,0.00,Acu-Link.com,2013-01-18 13:45:00,
2013-01-18 09:00:00,35.8,35.5,30.30,ENE,67,2.2,-999.0,99,-99.99,,,0.00,Acu-Link.com,2013-01-18 14:00:00,
2013-01-18 09:15:00,37.0,35.7,30.30,NNE,22,3.2,-999.0,95,-99.99,,,0.00,Acu-Link.com,2013-01-18 14:15:00,
2013-01-18 09:30:00,38.3,35.9,30.33,ENE,67,0.0,-999.0,91,-99.99,,,0.00,Acu-Link.com,2013-01-18 14:30:00,
2013-01-18 09:46:00,40.1,33.2,30.33,ENE,67,2.7,-999.0,76,-99.99,,,0.00,Acu-Link.com,2013-01-18 14:46:00,
2013-01-18 10:01:00,41.7,32.3,30.33,NNE,22,1.7,-999.0,69,-99.99,,,0.00,Acu-Link.com,2013-01-18 15:01:00,
2013-01-18 10:16:00,42.4,32.2,30.34,ENE,67,2.2,-999.0,67,-99.99,,,0.00,Acu-Link.com,2013-01-18 15:16:00,
2013-01-18 10:31:00,43.7,32.3,30.34,NE,45,2.7,-999.0,64,-99.99,,,0.00,Acu-Link.com,2013-01-18 15:31:00,
2013-01-18 10:46:00,45.0,29.4,30.34,East,90,3.7,-999.0,54,-99.99,,,0.00,Acu-Link.com,2013-01-18 15:46:00,
2013-01-18 11:01:00,46.4,29.7,30.34,WNW,292,1.1,-999.0,52,-99.99,,,0.00,Acu-Link.com,2013-01-18 16:01:00,
2013-01-18 11:16:00,46.8,30.1,30.34,NE,45,4.7,-999.0,52,-99.99,,,0.00,Acu-Link.com,2013-01-18 16:16:00,
2013-01-18 11:31:00,48.0,29.3,30.34,NNE,22,3.2,-999.0,48,-99.99,,,0.00,Acu-Link.com,2013-01-18 16:31:00,
2013-01-18 11:46:00,48.6,27.1,30.34,NE,45,5.3,-999.0,43,-99.99,,,0.00,Acu-Link.com,2013-01-18 16:46:00,
2013-01-18 12:02:00,49.3,27.8,30.33,NE,45,2.2,-999.0,43,-99.99,,,0.00,Acu-Link.com,2013-01-18 17:02:00,
2013-01-18 12:17:00,50.4,28.8,30.32,ESE,112,3.2,-999.0,43,-99.99,,,0.00,Acu-Link.com,2013-01-18 17:17:00,
2013-01-18 12:32:00,50.9,26.2,30.31,NE,45,4.2,-999.0,38,-99.99,,,0.00,Acu-Link.com,2013-01-18 17:32:00,
2013-01-18 12:47:00,52.0,26.5,30.31,ESE,112,2.7,-999.0,37,-99.99,,,0.00,Acu-Link.com,2013-01-18 17:47:00,
2013-01-18 13:02:00,52.5,24.2,30.29,NW,315,3.2,-999.0,33,-99.99,,,0.00,Acu-Link.com,2013-01-18 18:02:00,
2013-01-18 13:17:00,52.5,22.8,30.29,ENE,67,4.2,-999.0,31,-99.99,,,0.00,Acu-Link.com,2013-01-18 18:17:00,
2013-01-18 13:32:00,53.8,23.9,30.29,ESE,112,4.2,-999.0,31,-99.99,,,0.00,Acu-Link.com,2013-01-18 18:32:00,
2013-01-18 13:47:00,54.0,24.8,30.29,NNE,22,4.2,-999.0,32,-99.99,,,0.00,Acu-Link.com,2013-01-18 18:47:00,
2013-01-18 14:02:00,54.3,22.7,30.28,NE,45,4.7,-999.0,29,-99.99,,,0.00,Acu-Link.com,2013-01-18 19:02:00,
2013-01-18 14:18:00,53.2,24.1,30.28,NE,45,5.3,-999.0,32,-99.99,,,0.00,Acu-Link.com,2013-01-18 19:18:00,
2013-01-18 14:33:00,53.2,24.1,30.28,ENE,67,3.7,-999.0,32,-99.99,,,0.00,Acu-Link.com,2013-01-18 19:33:00,
2013-01-18 14:48:00,54.0,24.1,30.27,NNW,337,3.7,-999.0,31,-99.99,,,0.00,Acu-Link.com,2013-01-18 19:48:00,
2013-01-18 15:03:00,54.1,24.9,30.28,NE,45,3.7,-999.0,32,-99.99,,,0.00,Acu-Link.com,2013-01-18 20:03:00,
2013-01-18 15:18:00,53.4,23.5,30.28,NNW,337,3.2,-999.0,31,-99.99,,,0.00,Acu-Link.com,2013-01-18 20:18:00,
2013-01-18 15:33:00,53.4,25.0,30.28,SW,225,2.2,-999.0,33,-99.99,,,0.00,Acu-Link.com,2013-01-18 20:33:00,
2013-01-18 15:48:00,53.4,24.3,30.28,ESE,112,2.7,-999.0,32,-99.99,,,0.00,Acu-Link.com,2013-01-18 20:48:00,
2013-01-18 16:03:00,52.9,24.6,30.28,ESE,112,2.7,-999.0,33,-99.99,,,0.00,Acu-Link.com,2013-01-18 21:03:00,
2013-01-18 16:18:00,52.3,22.6,30.29,ENE,67,2.7,-999.0,31,-99.99,,,0.00,Acu-Link.com,2013-01-18 21:18:00,
2013-01-18 16:34:00,52.2,24.0,30.29,ESE,112,1.7,-999.0,33,-99.99,,,0.00,Acu-Link.com,2013-01-18 21:34:00,
2013-01-18 16:49:00,51.6,23.5,30.29,NE,45,2.7,-999.0,33,-99.99,,,0.00,Acu-Link.com,2013-01-18 21:49:00,
2013-01-18 17:04:00,51.3,23.9,30.29,NE,45,4.7,-999.0,34,-99.99,,,0.00,Acu-Link.com,2013-01-18 22:04:00,
2013-01-18 17:19:00,50.5,25.2,30.30,SSE,157,0.0,-999.0,37,-99.99,,,0.00,Acu-Link.com,2013-01-18 22:19:00,
2013-01-18 17:34:00,49.5,25.6,30.29,ESE,112,0.0,-999.0,39,-99.99,,,0.00,Acu-Link.com,2013-01-18 22:34:00,
2013-01-18 17:49:00,48.2,25.6,30.31,NE,45,1.7,-999.0,41,-99.99,,,0.00,Acu-Link.com,2013-01-18 22:49:00,
2013-01-18 18:04:00,46.9,26.7,30.31,ENE,67,0.0,-999.0,45,-99.99,,,0.00,Acu-Link.com,2013-01-18 23:04:00,
2013-01-18 18:19:00,45.5,28.0,30.30,NE,45,0.0,-999.0,50,-99.99,,,0.00,Acu-Link.com,2013-01-18 23:19:00,
2013-01-18 18:34:00,44.2,28.6,30.31,NE,45,0.0,-999.0,54,-99.99,,,0.00,Acu-Link.com,2013-01-18 23:34:00,
2013-01-18 18:50:00,43.2,29.0,30.32,NE,45,0.0,-999.0,57,-99.99,,,0.00,Acu-Link.com,2013-01-18 23:50:00,
2013-01-18 19:05:00,42.3,29.0,30.31,East,90,1.1,-999.0,59,-99.99,,,0.00,Acu-Link.com,2013-01-19 00:05:00,
2013-01-18 19:20:00,41.7,29.3,30.32,NE,45,0.0,-999.0,61,-99.99,,,0.00,Acu-Link.com,2013-01-19 00:20:00,
2013-01-18 19:35:00,41.2,29.2,30.32,NE,45,0.0,-999.0,62,-99.99,,,0.00,Acu-Link.com,2013-01-19 00:35:00,
2013-01-18 19:50:00,40.8,29.6,30.31,NE,45,0.0,-999.0,64,-99.99,,,0.00,Acu-Link.com,2013-01-19 00:50:00,
2013-01-18 20:05:00,40.5,29.7,30.31,NE,45,0.0,-999.0,65,-99.99,,,0.00,Acu-Link.com,2013-01-19 01:05:00,
2013-01-18 20:20:00,40.1,28.5,30.31,NNE,22,1.7,-999.0,63,-99.99,,,0.00,Acu-Link.com,2013-01-19 01:20:00,
2013-01-18 20:35:00,40.1,29.3,30.31,ENE,67,0.0,-999.0,65,-99.99,,,0.00,Acu-Link.com,2013-01-19 01:35:00,
2013-01-18 20:50:00,39.7,28.2,30.31,NE,45,0.0,-999.0,63,-99.99,,,0.00,Acu-Link.com,2013-01-19 01:50:00,
2013-01-18 21:06:00,39.7,28.5,30.31,SSW,202,0.0,-999.0,64,-99.99,,,0.00,Acu-Link.com,2013-01-19 02:06:00,
2013-01-18 21:21:00,39.4,28.6,30.31,ENE,67,0.0,-999.0,65,-99.99,,,0.00,Acu-Link.com,2013-01-19 02:21:00,
2013-01-18 21:36:00,39.2,27.7,30.31,East,90,0.0,-999.0,63,-99.99,,,0.00,Acu-Link.com,2013-01-19 02:36:00,
2013-01-18 21:51:00,39.2,27.7,30.31,NNE,22,0.0,-999.0,63,-99.99,,,0.00,Acu-Link.com,2013-01-19 02:51:00,
2013-01-18 22:06:00,39.0,27.1,30.31,NE,45,0.0,-999.0,62,-99.99,,,0.00,Acu-Link.com,2013-01-19 03:06:00,
2013-01-18 22:21:00,39.2,25.3,30.31,South,180,0.0,-999.0,57,-99.99,,,0.00,Acu-Link.com,2013-01-19 03:21:00,
2013-01-18 22:36:00,38.8,26.1,30.31,NE,45,0.0,-999.0,60,-99.99,,,0.00,Acu-Link.com,2013-01-19 03:36:00,
2013-01-18 23:06:00,37.6,26.2,30.31,NE,45,0.0,-999.0,63,-99.99,,,0.00,Acu-Link.com,2013-01-19 04:06:00,
2013-01-18 23:22:00,36.9,25.9,30.31,ESE,112,0.0,-999.0,64,-99.99,,,0.00,Acu-Link.com,2013-01-19 04:22:00,
2013-01-18 23:37:00,36.3,26.0,30.32,NE,45,0.0,-999.0,66,-99.99,,,0.00,Acu-Link.com,2013-01-19 04:37:00,
2013-01-18 23:52:00,36.0,26.1,30.32,NE,45,0.0,-999.0,67,-99.99,,,0.00,Acu-Link.com,2013-01-19 04:52:00,